sensor_id;sensor_type;location;lat;lon;timestamp;pressure;altitude;pressure_sealevel;temperature;humidity
29549;BME280;16487;53.094;8.800;2023-08-24T00:00:48;100824.41;;;19.29;100.00
29549;BME280;16487;53.094;8.800;2023-08-24T00:03:15;100840.81;;;19.25;100.00
29549;BME280;16487;53.094;8.800;2023-08-24T00:05:43;100861.66;;;19.28;100.00
29549;BME280;16487;53.094;8.800;2023-08-24T00:08:10;100863.63;;;19.42;100.00
29549;BME280;16487;53.094;8.800;2023-08-24T00:10:39;100855.13;;;19.42;100.00
29549;BME280;16487;53.094;8.800;2023-08-24T00:13:06;100840.91;;;19.31;100.00
29549;BME280;16487;53.094;8.800;2023-08-24T00:15:33;100845.81;;;19.36;100.00
29549;BME280;16487;53.094;8.800;2023-08-24T00:18:01;100821.78;;;19.46;100.00
29549;BME280;16487;53.094;8.800;2023-08-24T00:20:28;100806.81;;;19.40;100.00
29549;BME280;16487;53.094;8.800;2023-08-24T00:22:56;100807.03;;;19.36;100.00
29549;BME280;16487;53.094;8.800;2023-08-24T00:25:23;100809.81;;;19.31;100.00
29549;BME280;16487;53.094;8.800;2023-08-24T00:27:52;100810.78;;;19.28;100.00
29549;BME280;16487;53.094;8.800;2023-08-24T00:30:20;100829.00;;;19.21;100.00
29549;BME280;16487;53.094;8.800;2023-08-24T00:32:47;100850.81;;;19.21;100.00
29549;BME280;16487;53.094;8.800;2023-08-24T00:35:14;100857.91;;;19.11;100.00
29549;BME280;16487;53.094;8.800;2023-08-24T00:37:42;100882.72;;;19.01;100.00
29549;BME280;16487;53.094;8.800;2023-08-24T00:40:09;100907.09;;;18.99;100.00
29549;BME280;16487;53.094;8.800;2023-08-24T00:42:37;100923.84;;;19.02;100.00
29549;BME280;16487;53.094;8.800;2023-08-24T00:45:13;100942.19;;;19.12;100.00
29549;BME280;16487;53.094;8.800;2023-08-24T00:47:42;100936.47;;;19.07;100.00
29549;BME280;16487;53.094;8.800;2023-08-24T00:50:11;100944.00;;;19.15;100.00
29549;BME280;16487;53.094;8.800;2023-08-24T00:52:41;100941.41;;;19.12;100.00
29549;BME280;16487;53.094;8.800;2023-08-24T00:55:09;100956.69;;;19.00;100.00
29549;BME280;16487;53.094;8.800;2023-08-24T00:57:38;100968.56;;;18.84;100.00
29549;BME280;16487;53.094;8.800;2023-08-24T01:00:10;101023.19;;;18.81;100.00
29549;BME280;16487;53.094;8.800;2023-08-24T01:02:40;101070.28;;;18.69;100.00
29549;BME280;16487;53.094;8.800;2023-08-24T01:05:07;101148.00;;;18.65;100.00
29549;BME280;16487;53.094;8.800;2023-08-24T01:07:37;101195.31;;;18.70;100.00
29549;BME280;16487;53.094;8.800;2023-08-24T01:10:08;101216.34;;;18.69;100.00
29549;BME280;16487;53.094;8.800;2023-08-24T01:12:59;101242.66;;;18.75;100.00
29549;BME280;16487;53.094;8.800;2023-08-24T01:15:32;101241.66;;;18.63;100.00
29549;BME280;16487;53.094;8.800;2023-08-24T01:18:11;101267.06;;;18.63;100.00
29549;BME280;16487;53.094;8.800;2023-08-24T01:20:38;101279.22;;;18.55;100.00
29549;BME280;16487;53.094;8.800;2023-08-24T01:23:17;101292.03;;;18.94;100.00
29549;BME280;16487;53.094;8.800;2023-08-24T01:25:50;101263.56;;;18.83;100.00
29549;BME280;16487;53.094;8.800;2023-08-24T01:28:20;101249.66;;;18.79;100.00
29549;BME280;16487;53.094;8.800;2023-08-24T01:30:48;101256.66;;;18.84;100.00
29549;BME280;16487;53.094;8.800;2023-08-24T01:33:15;101258.00;;;18.74;100.00
29549;BME280;16487;53.094;8.800;2023-08-24T01:35:42;101271.00;;;18.80;100.00
29549;BME280;16487;53.094;8.800;2023-08-24T01:38:09;101281.59;;;18.71;100.00
29549;BME280;16487;53.094;8.800;2023-08-24T01:40:43;101293.28;;;18.64;100.00
29549;BME280;16487;53.094;8.800;2023-08-24T01:43:13;101323.16;;;18.70;100.00
29549;BME280;16487;53.094;8.800;2023-08-24T01:45:55;101323.06;;;18.79;100.00
29549;BME280;16487;53.094;8.800;2023-08-24T01:48:23;101314.31;;;18.92;100.00
29549;BME280;16487;53.094;8.800;2023-08-24T01:50:51;101307.50;;;18.84;100.00
29549;BME280;16487;53.094;8.800;2023-08-24T01:53:19;101309.66;;;18.89;100.00
29549;BME280;16487;53.094;8.800;2023-08-24T01:55:47;101297.56;;;18.74;100.00
29549;BME280;16487;53.094;8.800;2023-08-24T01:58:15;101288.03;;;18.71;100.00
29549;BME280;16487;53.094;8.800;2023-08-24T02:00:42;101287.91;;;18.66;100.00
29549;BME280;16487;53.094;8.800;2023-08-24T02:03:11;101291.91;;;18.74;100.00
29549;BME280;16487;53.094;8.800;2023-08-24T02:05:38;101293.28;;;18.78;100.00
29549;BME280;16487;53.094;8.800;2023-08-24T02:08:05;101268.06;;;18.75;100.00
29549;BME280;16487;53.094;8.800;2023-08-24T02:10:33;101263.00;;;18.64;100.00
29549;BME280;16487;53.094;8.800;2023-08-24T02:13:00;101265.44;;;18.71;100.00
29549;BME280;16487;53.094;8.800;2023-08-24T02:15:27;101263.66;;;18.74;100.00
29549;BME280;16487;53.094;8.800;2023-08-24T02:17:55;101259.00;;;18.71;100.00
29549;BME280;16487;53.094;8.800;2023-08-24T02:20:24;101258.72;;;18.54;100.00
29549;BME280;16487;53.094;8.800;2023-08-24T02:22:53;101277.13;;;18.64;100.00
29549;BME280;16487;53.094;8.800;2023-08-24T02:25:20;101267.56;;;18.47;100.00
29549;BME280;16487;53.094;8.800;2023-08-24T02:27:47;101282.50;;;18.39;100.00
29549;BME280;16487;53.094;8.800;2023-08-24T02:30:15;101299.44;;;18.39;100.00
29549;BME280;16487;53.094;8.800;2023-08-24T02:32:42;101313.41;;;18.42;100.00
29549;BME280;16487;53.094;8.800;2023-08-24T02:35:09;101312.63;;;18.42;100.00
29549;BME280;16487;53.094;8.800;2023-08-24T02:37:38;101315.56;;;18.47;100.00
29549;BME280;16487;53.094;8.800;2023-08-24T02:40:07;101310.09;;;18.44;100.00
29549;BME280;16487;53.094;8.800;2023-08-24T02:42:35;101314.75;;;18.47;100.00
29549;BME280;16487;53.094;8.800;2023-08-24T02:45:03;101318.25;;;18.42;100.00
29549;BME280;16487;53.094;8.800;2023-08-24T02:47:30;101315.47;;;18.33;100.00
29549;BME280;16487;53.094;8.800;2023-08-24T02:49:58;101313.41;;;18.42;100.00
29549;BME280;16487;53.094;8.800;2023-08-24T02:52:25;101309.78;;;18.42;100.00
29549;BME280;16487;53.094;8.800;2023-08-24T02:54:53;101313.31;;;18.51;100.00
29549;BME280;16487;53.094;8.800;2023-08-24T02:57:22;101287.81;;;18.46;100.00
29549;BME280;16487;53.094;8.800;2023-08-24T02:59:49;101279.03;;;18.58;100.00
29549;BME280;16487;53.094;8.800;2023-08-24T03:02:19;101276.72;;;18.57;100.00
29549;BME280;16487;53.094;8.800;2023-08-24T03:04:48;101260.44;;;18.52;100.00
29549;BME280;16487;53.094;8.800;2023-08-24T03:07:17;101244.69;;;18.45;100.00
29549;BME280;16487;53.094;8.800;2023-08-24T03:09:44;101255.47;;;18.47;100.00
29549;BME280;16487;53.094;8.800;2023-08-24T03:12:13;101255.00;;;18.48;100.00
29549;BME280;16487;53.094;8.800;2023-08-24T03:14:40;101252.66;;;18.47;100.00
29549;BME280;16487;53.094;8.800;2023-08-24T03:17:08;101255.09;;;18.54;100.00
29549;BME280;16487;53.094;8.800;2023-08-24T03:19:35;101260.75;;;18.54;100.00
29549;BME280;16487;53.094;8.800;2023-08-24T03:22:02;101263.28;;;18.52;100.00
29549;BME280;16487;53.094;8.800;2023-08-24T03:24:29;101260.56;;;18.57;100.00
29549;BME280;16487;53.094;8.800;2023-08-24T03:26:57;101253.16;;;18.45;100.00
29549;BME280;16487;53.094;8.800;2023-08-24T03:29:26;101264.34;;;18.54;100.00
29549;BME280;16487;53.094;8.800;2023-08-24T03:31:53;101266.47;;;18.45;100.00
29549;BME280;16487;53.094;8.800;2023-08-24T03:34:20;101292.53;;;18.40;100.00
29549;BME280;16487;53.094;8.800;2023-08-24T03:36:47;101300.59;;;18.32;100.00
29549;BME280;16487;53.094;8.800;2023-08-24T03:39:15;101318.84;;;18.22;100.00
29549;BME280;16487;53.094;8.800;2023-08-24T03:41:43;101336.28;;;18.20;100.00
29549;BME280;16487;53.094;8.800;2023-08-24T03:44:11;101363.81;;;18.25;100.00
29549;BME280;16487;53.094;8.800;2023-08-24T03:46:39;101380.81;;;18.16;100.00
29549;BME280;16487;53.094;8.800;2023-08-24T03:49:06;101390.31;;;18.28;100.00
29549;BME280;16487;53.094;8.800;2023-08-24T03:51:34;101388.38;;;18.34;100.00
29549;BME280;16487;53.094;8.800;2023-08-24T03:54:01;101389.53;;;18.27;100.00
29549;BME280;16487;53.094;8.800;2023-08-24T03:56:28;101400.44;;;18.35;100.00
29549;BME280;16487;53.094;8.800;2023-08-24T03:58:56;101399.00;;;18.39;100.00
29549;BME280;16487;53.094;8.800;2023-08-24T04:01:24;101407.47;;;18.39;100.00
29549;BME280;16487;53.094;8.800;2023-08-24T04:03:52;101400.13;;;18.42;100.00
29549;BME280;16487;53.094;8.800;2023-08-24T04:06:20;101388.97;;;18.38;100.00
29549;BME280;16487;53.094;8.800;2023-08-24T04:08:47;101390.97;;;18.47;100.00
29549;BME280;16487;53.094;8.800;2023-08-24T04:11:14;101388.47;;;18.49;100.00
29549;BME280;16487;53.094;8.800;2023-08-24T04:13:42;101381.31;;;18.39;100.00
29549;BME280;16487;53.094;8.800;2023-08-24T04:16:18;101380.66;;;18.44;100.00
29549;BME280;16487;53.094;8.800;2023-08-24T04:18:47;101379.72;;;18.38;100.00
29549;BME280;16487;53.094;8.800;2023-08-24T04:21:15;101375.72;;;18.29;100.00
29549;BME280;16487;53.094;8.800;2023-08-24T04:23:42;101385.72;;;18.30;100.00
29549;BME280;16487;53.094;8.800;2023-08-24T04:26:09;101394.63;;;18.38;100.00
29549;BME280;16487;53.094;8.800;2023-08-24T04:28:37;101402.31;;;18.38;100.00
29549;BME280;16487;53.094;8.800;2023-08-24T04:31:04;101408.41;;;18.45;100.00
29549;BME280;16487;53.094;8.800;2023-08-24T04:33:31;101397.59;;;18.44;100.00
29549;BME280;16487;53.094;8.800;2023-08-24T04:35:58;101401.97;;;18.45;100.00
29549;BME280;16487;53.094;8.800;2023-08-24T04:38:27;101408.25;;;18.40;100.00
29549;BME280;16487;53.094;8.800;2023-08-24T04:40:55;101412.97;;;18.43;100.00
29549;BME280;16487;53.094;8.800;2023-08-24T04:43:24;101396.81;;;18.43;100.00
29549;BME280;16487;53.094;8.800;2023-08-24T04:45:52;101395.75;;;18.41;100.00
29549;BME280;16487;53.094;8.800;2023-08-24T04:48:20;101385.38;;;18.38;100.00
29549;BME280;16487;53.094;8.800;2023-08-24T04:50:47;101392.28;;;18.37;100.00
29549;BME280;16487;53.094;8.800;2023-08-24T04:53:17;101402.47;;;18.43;100.00
29549;BME280;16487;53.094;8.800;2023-08-24T04:55:46;101404.63;;;18.48;100.00
29549;BME280;16487;53.094;8.800;2023-08-24T04:58:13;101395.59;;;18.59;100.00
29549;BME280;16487;53.094;8.800;2023-08-24T05:00:41;101387.72;;;18.63;100.00
29549;BME280;16487;53.094;8.800;2023-08-24T05:03:08;101385.38;;;18.61;100.00
29549;BME280;16487;53.094;8.800;2023-08-24T05:05:37;101372.34;;;18.64;100.00
29549;BME280;16487;53.094;8.800;2023-08-24T05:08:05;101369.81;;;18.66;100.00
29549;BME280;16487;53.094;8.800;2023-08-24T05:10:33;101368.34;;;18.56;100.00
29549;BME280;16487;53.094;8.800;2023-08-24T05:13:02;101382.25;;;18.59;100.00
29549;BME280;16487;53.094;8.800;2023-08-24T05:15:29;101382.16;;;18.54;100.00
29549;BME280;16487;53.094;8.800;2023-08-24T05:17:56;101389.81;;;18.53;100.00
29549;BME280;16487;53.094;8.800;2023-08-24T05:20:23;101386.06;;;18.56;100.00
29549;BME280;16487;53.094;8.800;2023-08-24T05:22:51;101389.81;;;18.53;100.00
29549;BME280;16487;53.094;8.800;2023-08-24T05:25:18;101395.53;;;18.68;100.00
29549;BME280;16487;53.094;8.800;2023-08-24T05:27:45;101382.56;;;18.76;100.00
29549;BME280;16487;53.094;8.800;2023-08-24T05:30:14;101384.84;;;18.86;100.00
29549;BME280;16487;53.094;8.800;2023-08-24T05:32:41;101379.97;;;19.01;100.00
29549;BME280;16487;53.094;8.800;2023-08-24T05:35:09;101347.84;;;18.99;100.00
29549;BME280;16487;53.094;8.800;2023-08-24T05:37:36;101332.94;;;19.13;100.00
29549;BME280;16487;53.094;8.800;2023-08-24T05:40:07;101311.19;;;19.19;100.00
29549;BME280;16487;53.094;8.800;2023-08-24T05:42:34;101284.28;;;19.23;100.00
29549;BME280;16487;53.094;8.800;2023-08-24T05:45:05;101268.88;;;19.24;100.00
29549;BME280;16487;53.094;8.800;2023-08-24T05:47:34;101263.03;;;19.28;100.00
29549;BME280;16487;53.094;8.800;2023-08-24T05:50:01;101255.81;;;19.27;100.00
29549;BME280;16487;53.094;8.800;2023-08-24T05:52:28;101249.69;;;19.14;100.00
29549;BME280;16487;53.094;8.800;2023-08-24T05:54:56;101258.88;;;18.94;100.00
29549;BME280;16487;53.094;8.800;2023-08-24T05:57:23;101276.06;;;18.91;100.00
29549;BME280;16487;53.094;8.800;2023-08-24T05:59:50;101291.53;;;18.95;100.00
29549;BME280;16487;53.094;8.800;2023-08-24T06:02:17;101285.28;;;18.91;100.00
29549;BME280;16487;53.094;8.800;2023-08-24T06:04:45;101314.50;;;18.88;100.00
29549;BME280;16487;53.094;8.800;2023-08-24T06:07:13;101324.28;;;18.87;100.00
29549;BME280;16487;53.094;8.800;2023-08-24T06:09:40;101335.38;;;18.91;100.00
29549;BME280;16487;53.094;8.800;2023-08-24T06:12:07;101351.13;;;19.12;100.00
29549;BME280;16487;53.094;8.800;2023-08-24T06:14:35;101359.91;;;19.28;100.00
29549;BME280;16487;53.094;8.800;2023-08-24T06:17:02;101340.31;;;19.39;100.00
29549;BME280;16487;53.094;8.800;2023-08-24T06:19:29;101313.31;;;19.53;100.00
29549;BME280;16487;53.094;8.800;2023-08-24T06:21:57;101284.28;;;19.38;100.00
29549;BME280;16487;53.094;8.800;2023-08-24T06:24:24;101282.63;;;19.31;100.00
29549;BME280;16487;53.094;8.800;2023-08-24T06:26:52;101286.41;;;19.43;100.00
29549;BME280;16487;53.094;8.800;2023-08-24T06:29:29;101286.88;;;19.56;100.00
29549;BME280;16487;53.094;8.800;2023-08-24T06:31:56;101272.72;;;19.56;100.00
29549;BME280;16487;53.094;8.800;2023-08-24T06:34:23;101238.09;;;19.61;100.00
29549;BME280;16487;53.094;8.800;2023-08-24T06:36:52;101217.88;;;19.68;100.00
29549;BME280;16487;53.094;8.800;2023-08-24T06:39:21;101199.19;;;19.76;100.00
29549;BME280;16487;53.094;8.800;2023-08-24T06:41:48;101193.25;;;19.74;100.00
29549;BME280;16487;53.094;8.800;2023-08-24T06:44:21;101184.94;;;19.65;100.00
29549;BME280;16487;53.094;8.800;2023-08-24T06:46:49;101171.75;;;19.82;100.00
29549;BME280;16487;53.094;8.800;2023-08-24T06:49:16;101164.66;;;19.92;100.00
29549;BME280;16487;53.094;8.800;2023-08-24T06:51:44;101160.56;;;19.93;100.00
29549;BME280;16487;53.094;8.800;2023-08-24T06:54:11;101135.28;;;19.84;100.00
29549;BME280;16487;53.094;8.800;2023-08-24T06:56:41;101130.00;;;19.97;100.00
29549;BME280;16487;53.094;8.800;2023-08-24T06:59:08;101127.31;;;20.14;100.00
29549;BME280;16487;53.094;8.800;2023-08-24T07:01:35;101105.81;;;20.22;100.00
29549;BME280;16487;53.094;8.800;2023-08-24T07:04:05;101068.06;;;20.30;100.00
29549;BME280;16487;53.094;8.800;2023-08-24T07:06:33;101033.66;;;20.43;100.00
29549;BME280;16487;53.094;8.800;2023-08-24T07:09:00;101001.53;;;20.52;100.00
29549;BME280;16487;53.094;8.800;2023-08-24T07:11:27;100974.28;;;20.60;100.00
29549;BME280;16487;53.094;8.800;2023-08-24T07:14:01;100943.75;;;20.86;100.00
29549;BME280;16487;53.094;8.800;2023-08-24T07:16:28;100881.94;;;20.90;100.00
29549;BME280;16487;53.094;8.800;2023-08-24T07:18:57;100809.59;;;21.16;100.00
29549;BME280;16487;53.094;8.800;2023-08-24T07:21:24;100743.34;;;21.41;100.00
29549;BME280;16487;53.094;8.800;2023-08-24T07:23:55;100684.06;;;21.43;100.00
29549;BME280;16487;53.094;8.800;2023-08-24T07:26:22;100630.31;;;21.73;100.00
29549;BME280;16487;53.094;8.800;2023-08-24T07:28:49;100543.88;;;21.74;100.00
29549;BME280;16487;53.094;8.800;2023-08-24T07:31:18;100508.78;;;21.77;100.00
29549;BME280;16487;53.094;8.800;2023-08-24T07:33:45;100464.97;;;21.73;100.00
29549;BME280;16487;53.094;8.800;2023-08-24T07:36:22;100448.94;;;21.75;100.00
29549;BME280;16487;53.094;8.800;2023-08-24T07:38:49;100438.84;;;21.50;100.00
29549;BME280;16487;53.094;8.800;2023-08-24T07:41:16;100497.03;;;21.62;100.00
29549;BME280;16487;53.094;8.800;2023-08-24T07:43:43;100448.06;;;21.56;100.00
29549;BME280;16487;53.094;8.800;2023-08-24T07:46:10;100433.28;;;21.69;100.00
29549;BME280;16487;53.094;8.800;2023-08-24T07:48:39;100418.25;;;21.79;100.00
29549;BME280;16487;53.094;8.800;2023-08-24T07:51:07;100386.38;;;21.97;100.00
29549;BME280;16487;53.094;8.800;2023-08-24T07:53:34;100351.72;;;22.04;100.00
29549;BME280;16487;53.094;8.800;2023-08-24T07:56:02;100327.28;;;21.96;100.00
29549;BME280;16487;53.094;8.800;2023-08-24T07:58:30;100300.88;;;21.77;100.00
29549;BME280;16487;53.094;8.800;2023-08-24T08:00:58;100316.06;;;21.85;100.00
29549;BME280;16487;53.094;8.800;2023-08-24T08:03:25;100241.25;;;22.06;100.00
29549;BME280;16487;53.094;8.800;2023-08-24T08:05:55;100175.41;;;22.08;100.00
29549;BME280;16487;53.094;8.800;2023-08-24T08:08:23;100128.75;;;22.22;100.00
29549;BME280;16487;53.094;8.800;2023-08-24T08:10:57;100119.28;;;22.19;100.00
29549;BME280;16487;53.094;8.800;2023-08-24T08:13:25;100073.84;;;22.19;100.00
29549;BME280;16487;53.094;8.800;2023-08-24T08:15:52;100050.06;;;22.22;100.00
29549;BME280;16487;53.094;8.800;2023-08-24T08:18:19;100026.25;;;22.25;100.00
29549;BME280;16487;53.094;8.800;2023-08-24T08:20:51;100042.16;;;22.15;100.00
29549;BME280;16487;53.094;8.800;2023-08-24T08:23:19;100011.09;;;22.23;100.00
29549;BME280;16487;53.094;8.800;2023-08-24T08:25:47;99950.34;;;22.57;100.00
29549;BME280;16487;53.094;8.800;2023-08-24T08:28:14;99956.56;;;22.69;100.00
29549;BME280;16487;53.094;8.800;2023-08-24T08:30:41;99953.59;;;22.75;100.00
29549;BME280;16487;53.094;8.800;2023-08-24T08:33:08;99939.94;;;22.99;100.00
29549;BME280;16487;53.094;8.800;2023-08-24T08:35:37;99962.09;;;22.88;100.00
29549;BME280;16487;53.094;8.800;2023-08-24T08:38:05;99978.41;;;22.87;100.00
29549;BME280;16487;53.094;8.800;2023-08-24T08:40:36;99996.22;;;22.88;100.00
29549;BME280;16487;53.094;8.800;2023-08-24T08:43:04;99992.63;;;22.74;100.00
29549;BME280;16487;53.094;8.800;2023-08-24T08:45:32;100008.47;;;22.96;100.00
29549;BME280;16487;53.094;8.800;2023-08-24T08:48:00;100009.78;;;22.82;100.00
29549;BME280;16487;53.094;8.800;2023-08-24T08:50:27;100025.72;;;23.24;100.00
29549;BME280;16487;53.094;8.800;2023-08-24T08:52:57;100030.56;;;23.29;100.00
29549;BME280;16487;53.094;8.800;2023-08-24T08:55:25;100042.63;;;23.68;100.00
29549;BME280;16487;53.094;8.800;2023-08-24T08:57:56;100068.53;;;23.78;100.00
29549;BME280;16487;53.094;8.800;2023-08-24T09:00:23;100108.03;;;23.95;100.00
29549;BME280;16487;53.094;8.800;2023-08-24T09:02:53;100127.38;;;24.09;100.00
29549;BME280;16487;53.094;8.800;2023-08-24T09:05:31;100161.66;;;24.17;100.00
29549;BME280;16487;53.094;8.800;2023-08-24T09:07:59;100208.44;;;24.08;100.00
29549;BME280;16487;53.094;8.800;2023-08-24T09:10:27;100247.09;;;23.91;100.00
29549;BME280;16487;53.094;8.800;2023-08-24T09:12:55;100258.59;;;24.11;100.00
29549;BME280;16487;53.094;8.800;2023-08-24T09:15:26;100268.47;;;24.10;100.00
29549;BME280;16487;53.094;8.800;2023-08-24T09:17:54;100267.34;;;24.39;100.00
29549;BME280;16487;53.094;8.800;2023-08-24T09:20:22;100268.91;;;24.01;100.00
29549;BME280;16487;53.094;8.800;2023-08-24T09:22:49;100244.28;;;24.50;100.00
29549;BME280;16487;53.094;8.800;2023-08-24T09:25:16;100231.41;;;24.36;100.00
29549;BME280;16487;53.094;8.800;2023-08-24T09:27:45;100241.84;;;24.67;100.00
29549;BME280;16487;53.094;8.800;2023-08-24T09:30:14;100304.34;;;25.20;100.00
29549;BME280;16487;53.094;8.800;2023-08-24T09:32:41;100302.22;;;24.66;100.00
29549;BME280;16487;53.094;8.800;2023-08-24T09:35:09;100314.28;;;25.06;100.00
29549;BME280;16487;53.094;8.800;2023-08-24T09:37:37;100432.00;;;25.53;100.00
29549;BME280;16487;53.094;8.800;2023-08-24T09:40:06;100513.75;;;25.97;100.00
29549;BME280;16487;53.094;8.800;2023-08-24T09:42:40;100533.53;;;25.35;100.00
29549;BME280;16487;53.094;8.800;2023-08-24T09:45:09;100527.75;;;25.41;100.00
29549;BME280;16487;53.094;8.800;2023-08-24T09:47:39;100628.97;;;25.99;100.00
29549;BME280;16487;53.094;8.800;2023-08-24T09:50:07;100687.47;;;26.32;100.00
29549;BME280;16487;53.094;8.800;2023-08-24T09:52:34;101026.06;;;26.89;100.00
29549;BME280;16487;53.094;8.800;2023-08-24T09:55:03;101424.22;;;27.62;100.00
29549;BME280;16487;53.094;8.800;2023-08-24T09:57:33;101584.16;;;27.95;100.00
29549;BME280;16487;53.094;8.800;2023-08-24T10:00:05;101662.00;;;28.49;100.00
29549;BME280;16487;53.094;8.800;2023-08-24T10:02:36;101676.50;;;28.25;100.00
29549;BME280;16487;53.094;8.800;2023-08-24T10:05:05;101691.34;;;29.18;100.00
29549;BME280;16487;53.094;8.800;2023-08-24T10:07:42;101720.53;;;29.36;100.00
29549;BME280;16487;53.094;8.800;2023-08-24T10:10:11;101730.91;;;29.65;100.00
29549;BME280;16487;53.094;8.800;2023-08-24T10:12:44;101733.72;;;30.30;100.00
29549;BME280;16487;53.094;8.800;2023-08-24T10:15:13;101724.31;;;30.84;100.00
29549;BME280;16487;53.094;8.800;2023-08-24T10:17:42;101711.84;;;31.09;100.00
29549;BME280;16487;53.094;8.800;2023-08-24T10:20:11;101713.53;;;29.96;100.00
29549;BME280;16487;53.094;8.800;2023-08-24T10:22:38;101720.69;;;30.70;100.00
29549;BME280;16487;53.094;8.800;2023-08-24T10:25:06;101721.94;;;31.23;100.00
29549;BME280;16487;53.094;8.800;2023-08-24T10:27:34;101711.41;;;28.42;100.00
29549;BME280;16487;53.094;8.800;2023-08-24T10:30:03;101704.56;;;30.00;100.00
29549;BME280;16487;53.094;8.800;2023-08-24T10:32:30;101700.13;;;30.46;100.00
29549;BME280;16487;53.094;8.800;2023-08-24T10:34:58;101697.28;;;31.15;100.00
29549;BME280;16487;53.094;8.800;2023-08-24T10:37:27;101696.09;;;31.10;100.00
29549;BME280;16487;53.094;8.800;2023-08-24T10:39:54;101686.53;;;31.15;100.00
29549;BME280;16487;53.094;8.800;2023-08-24T10:42:22;101686.91;;;30.50;100.00
29549;BME280;16487;53.094;8.800;2023-08-24T10:44:49;101688.00;;;29.67;100.00
29549;BME280;16487;53.094;8.800;2023-08-24T10:47:18;101689.47;;;28.63;100.00
29549;BME280;16487;53.094;8.800;2023-08-24T10:49:57;101669.22;;;30.25;100.00
29549;BME280;16487;53.094;8.800;2023-08-24T10:52:30;101672.09;;;30.46;100.00
29549;BME280;16487;53.094;8.800;2023-08-24T10:55:00;101676.88;;;30.64;100.00
29549;BME280;16487;53.094;8.800;2023-08-24T10:57:35;101684.81;;;30.17;100.00
29549;BME280;16487;53.094;8.800;2023-08-24T11:00:05;101674.88;;;30.18;100.00
29549;BME280;16487;53.094;8.800;2023-08-24T11:02:42;101672.78;;;30.39;100.00
29549;BME280;16487;53.094;8.800;2023-08-24T11:05:20;101674.28;;;28.94;100.00
29549;BME280;16487;53.094;8.800;2023-08-24T11:07:50;101665.66;;;29.86;100.00
29549;BME280;16487;53.094;8.800;2023-08-24T11:10:17;101660.00;;;30.27;100.00
29549;BME280;16487;53.094;8.800;2023-08-24T11:13:07;101656.53;;;30.08;100.00
29549;BME280;16487;53.094;8.800;2023-08-24T11:15:40;101649.81;;;29.92;100.00
29549;BME280;16487;53.094;8.800;2023-08-24T11:18:21;101639.44;;;29.89;100.00
29549;BME280;16487;53.094;8.800;2023-08-24T11:20:50;101645.16;;;29.43;100.00
29549;BME280;16487;53.094;8.800;2023-08-24T11:23:19;101635.66;;;29.48;100.00
29549;BME280;16487;53.094;8.800;2023-08-24T11:25:49;101628.38;;;30.89;100.00
29549;BME280;16487;53.094;8.800;2023-08-24T11:28:17;101634.47;;;29.90;100.00
29549;BME280;16487;53.094;8.800;2023-08-24T11:30:45;101626.56;;;28.78;100.00
29549;BME280;16487;53.094;8.800;2023-08-24T11:33:12;101621.72;;;29.98;100.00
29549;BME280;16487;53.094;8.800;2023-08-24T11:35:42;101618.78;;;30.94;100.00
29549;BME280;16487;53.094;8.800;2023-08-24T11:38:09;101619.66;;;30.81;100.00
29549;BME280;16487;53.094;8.800;2023-08-24T11:40:38;101610.63;;;30.36;100.00
29549;BME280;16487;53.094;8.800;2023-08-24T11:43:05;101607.31;;;29.78;100.00
29549;BME280;16487;53.094;8.800;2023-08-24T11:45:35;101605.47;;;30.83;100.00
29549;BME280;16487;53.094;8.800;2023-08-24T11:48:03;101598.91;;;31.90;100.00
29549;BME280;16487;53.094;8.800;2023-08-24T11:50:32;101580.31;;;31.98;100.00
29549;BME280;16487;53.094;8.800;2023-08-24T11:52:59;101560.50;;;33.80;100.00
29549;BME280;16487;53.094;8.800;2023-08-24T11:55:26;101568.22;;;32.22;100.00
29549;BME280;16487;53.094;8.800;2023-08-24T11:57:55;101571.69;;;32.43;100.00
29549;BME280;16487;53.094;8.800;2023-08-24T12:00:22;101560.31;;;33.45;100.00
29549;BME280;16487;53.094;8.800;2023-08-24T12:02:51;101572.81;;;32.63;100.00
29549;BME280;16487;53.094;8.800;2023-08-24T12:05:22;101587.72;;;31.00;100.00
29549;BME280;16487;53.094;8.800;2023-08-24T12:07:51;101575.66;;;31.37;100.00
29549;BME280;16487;53.094;8.800;2023-08-24T12:10:19;101571.25;;;31.94;100.00
29549;BME280;16487;53.094;8.800;2023-08-24T12:12:47;101569.25;;;30.95;100.00
29549;BME280;16487;53.094;8.800;2023-08-24T12:15:19;101552.72;;;30.40;100.00
29549;BME280;16487;53.094;8.800;2023-08-24T12:17:47;101553.03;;;30.28;100.00
29549;BME280;16487;53.094;8.800;2023-08-24T12:20:18;101556.06;;;30.10;100.00
29549;BME280;16487;53.094;8.800;2023-08-24T12:22:52;101541.13;;;29.70;100.00
29549;BME280;16487;53.094;8.800;2023-08-24T12:25:23;101533.16;;;29.63;100.00
29549;BME280;16487;53.094;8.800;2023-08-24T12:27:50;101546.88;;;29.70;100.00
29549;BME280;16487;53.094;8.800;2023-08-24T12:30:19;101549.41;;;29.61;100.00
29549;BME280;16487;53.094;8.800;2023-08-24T12:32:47;101546.00;;;29.49;100.00
29549;BME280;16487;53.094;8.800;2023-08-24T12:35:16;101530.97;;;29.69;100.00
29549;BME280;16487;53.094;8.800;2023-08-24T12:37:43;101523.47;;;29.87;100.00
29549;BME280;16487;53.094;8.800;2023-08-24T12:40:10;101519.03;;;29.18;100.00
29549;BME280;16487;53.094;8.800;2023-08-24T12:42:38;101511.41;;;29.68;100.00
29549;BME280;16487;53.094;8.800;2023-08-24T12:45:06;101514.78;;;30.00;100.00
29549;BME280;16487;53.094;8.800;2023-08-24T12:47:35;101522.34;;;29.90;100.00